<?xml version="1.0" encoding="UTF-8" standalone="no" ?>
<gpx xmlns="http://www.topografix.com/GPX/1/1" creator="MapSource 6.15.5" version="1.1" xmlns:xsi="http://www.w3.org/2001/XMLSchema-instance" xsi:schemaLocation="http://www.topografix.com/GPX/1/1 http://www.topografix.com/GPX/1/1/gpx.xsd">

  <metadata>
    <link href="http://www.garmin.com">
      <text>Garmin International</text>
    </link>
    <time>2014-01-03T19:35:50Z</time>
    <bounds maxlat="51.9239670" maxlon="7.2022950" minlat="51.8540120" minlon="7.1295780"/>
  </metadata>

  <wpt lat="51.8552321" lon="7.1298414">
    <time>2014-01-03T19:22:43Z</time>
    <name>Eingang Wildpferdebahn</name>
    <cmt>Straße</cmt>
    <desc>Straße</desc>
    <sym>Custom 0</sym>
    <extensions>
      <gpxx:WaypointExtension xmlns:gpxx="http://www.garmin.com/xmlschemas/GpxExtensions/v3">
        <gpxx:DisplayMode>SymbolAndName</gpxx:DisplayMode>
      </gpxx:WaypointExtension>
    </extensions>
  </wpt>

  <wpt lat="51.9156790" lon="7.1975470">
    <time>2014-01-03T19:21:51Z</time>
    <name>Gestüt: Letter Berg</name>
    <cmt>Letter Berg 22</cmt>
    <desc>Letter Berg 22</desc>
    <sym>Custom 0</sym>
    <extensions>
      <gpxx:WaypointExtension xmlns:gpxx="http://www.garmin.com/xmlschemas/GpxExtensions/v3">
        <gpxx:DisplayMode>SymbolAndName</gpxx:DisplayMode>
      </gpxx:WaypointExtension>
    </extensions>
  </wpt>

  <wpt lat="51.9059372" lon="7.1864319">
    <time>2014-01-03T19:19:13Z</time>
    <name>Reiterhof Hillebrandt</name>
    <cmt>Coesfelder Strasse und Herteler</cmt>
    <desc>Coesfelder Strasse und Herteler</desc>
    <sym>Custom 0</sym>
    <extensions>
      <gpxx:WaypointExtension xmlns:gpxx="http://www.garmin.com/xmlschemas/GpxExtensions/v3">
        <gpxx:DisplayMode>SymbolAndName</gpxx:DisplayMode>
      </gpxx:WaypointExtension>
    </extensions>
  </wpt>

  <trk>
    <name>ACTIVE LOG100305</name>
    <extensions>
      <gpxx:TrackExtension xmlns:gpxx="http://www.garmin.com/xmlschemas/GpxExtensions/v3">
        <gpxx:DisplayColor>White</gpxx:DisplayColor>
      </gpxx:TrackExtension>
    </extensions>
    <trkseg>
      <trkpt lat="51.8926560" lon="7.1871520">
        <ele>-22.7980000</ele>
        <time>2013-10-31T09:03:05Z</time>
      </trkpt>
      <trkpt lat="51.8926660" lon="7.1871780">
        <ele>-19.7760000</ele>
        <time>2013-10-31T09:03:16Z</time>
      </trkpt>
      <trkpt lat="51.8926720" lon="7.1871660">
        <ele>-16.4870000</ele>
        <time>2013-10-31T09:03:17Z</time>
      </trkpt>
      <trkpt lat="51.8927010" lon="7.1871040">
        <ele>-8.7680000</ele>
        <time>2013-10-31T09:03:20Z</time>
      </trkpt>
      <trkpt lat="51.8927450" lon="7.1870470">
        <ele>-4.1390000</ele>
        <time>2013-10-31T09:03:22Z</time>
      </trkpt>
      <trkpt lat="51.8928100" lon="7.1870050">
        <ele>0.4320000</ele>
        <time>2013-10-31T09:03:24Z</time>
      </trkpt>
      <trkpt lat="51.8928740" lon="7.1869520">
        <ele>4.8240000</ele>
        <time>2013-10-31T09:03:26Z</time>
      </trkpt>
      <trkpt lat="51.8929350" lon="7.1868580">
        <ele>8.2840000</ele>
        <time>2013-10-31T09:03:28Z</time>
      </trkpt>
      <trkpt lat="51.8929870" lon="7.1867880">
        <ele>13.1980000</ele>
        <time>2013-10-31T09:03:30Z</time>
      </trkpt>
      <trkpt lat="51.8930850" lon="7.1866850">
        <ele>18.8150000</ele>
        <time>2013-10-31T09:03:33Z</time>
      </trkpt>
      <trkpt lat="51.8931250" lon="7.1865510">
        <ele>22.7120000</ele>
        <time>2013-10-31T09:03:36Z</time>
      </trkpt>
      <trkpt lat="51.8931190" lon="7.1865120">
        <ele>27.8650000</ele>
        <time>2013-10-31T09:03:39Z</time>
      </trkpt>
      <trkpt lat="51.8931190" lon="7.1865210">
        <ele>31.1100000</ele>
        <time>2013-10-31T09:03:41Z</time>
      </trkpt>
      <trkpt lat="51.8931170" lon="7.1865290">
        <ele>35.1380000</ele>
        <time>2013-10-31T09:03:45Z</time>
      </trkpt>
      <trkpt lat="51.8931230" lon="7.1865250">
        <ele>38.4530000</ele>
        <time>2013-10-31T09:03:48Z</time>
      </trkpt>
      <trkpt lat="51.8932080" lon="7.1863640">
        <ele>42.7450000</ele>
        <time>2013-10-31T09:03:53Z</time>
      </trkpt>
      <trkpt lat="51.8933670" lon="7.1861260">
        <ele>46.5280000</ele>
        <time>2013-10-31T09:03:58Z</time>
      </trkpt>
      <trkpt lat="51.8935040" lon="7.1859170">
        <ele>48.9610000</ele>
        <time>2013-10-31T09:04:03Z</time>
      </trkpt>
      <trkpt lat="51.8935770" lon="7.1858010">
        <ele>50.4940000</ele>
        <time>2013-10-31T09:04:06Z</time>
      </trkpt>
      <trkpt lat="51.8937720" lon="7.1855530">
        <ele>53.1450000</ele>
        <time>2013-10-31T09:04:12Z</time>
      </trkpt>
      <trkpt lat="51.8941390" lon="7.1850410">
        <ele>56.1530000</ele>
        <time>2013-10-31T09:04:24Z</time>
      </trkpt>
      <trkpt lat="51.8947370" lon="7.1842070">
        <ele>58.5230000</ele>
        <time>2013-10-31T09:04:44Z</time>
      </trkpt>
      <trkpt lat="51.8952280" lon="7.1835010">
        <ele>61.1190000</ele>
        <time>2013-10-31T09:05:01Z</time>
      </trkpt>
      <trkpt lat="51.8952830" lon="7.1834210">
        <ele>61.4440000</ele>
        <time>2013-10-31T09:05:03Z</time>
      </trkpt>
      <trkpt lat="51.8954300" lon="7.1835400">
        <ele>61.7450000</ele>
        <time>2013-10-31T09:05:07Z</time>
      </trkpt>
      <trkpt lat="51.8958190" lon="7.1843650">
        <ele>61.5020000</ele>
        <time>2013-10-31T09:05:23Z</time>
      </trkpt>
      <trkpt lat="51.8963710" lon="7.1853260">
        <ele>61.4430000</ele>
        <time>2013-10-31T09:05:43Z</time>
      </trkpt>
      <trkpt lat="51.8970350" lon="7.1861750">
        <ele>62.5380000</ele>
        <time>2013-10-31T09:06:06Z</time>
      </trkpt>
      <trkpt lat="51.8970860" lon="7.1862630">
        <ele>63.2410000</ele>
        <time>2013-10-31T09:06:08Z</time>
      </trkpt>
      <trkpt lat="51.8974000" lon="7.1868700">
        <ele>63.5210000</ele>
        <time>2013-10-31T09:06:23Z</time>
      </trkpt>
      <trkpt lat="51.8975870" lon="7.1875170">
        <ele>64.2960000</ele>
        <time>2013-10-31T09:06:37Z</time>
      </trkpt>
      <trkpt lat="51.8977550" lon="7.1884830">
        <ele>64.8390000</ele>
        <time>2013-10-31T09:06:55Z</time>
      </trkpt>
      <trkpt lat="51.8979090" lon="7.1895800">
        <ele>64.6650000</ele>
        <time>2013-10-31T09:07:14Z</time>
      </trkpt>
      <trkpt lat="51.8979810" lon="7.1897580">
        <ele>64.1320000</ele>
        <time>2013-10-31T09:07:25Z</time>
      </trkpt>
      <trkpt lat="51.8980410" lon="7.1899080">
        <ele>64.5830000</ele>
        <time>2013-10-31T09:07:49Z</time>
      </trkpt>
      <trkpt lat="51.8983230" lon="7.1895770">
        <ele>64.7260000</ele>
        <time>2013-10-31T09:07:59Z</time>
      </trkpt>
      <trkpt lat="51.8987120" lon="7.1891200">
        <ele>66.1240000</ele>
        <time>2013-10-31T09:08:12Z</time>
      </trkpt>
      <trkpt lat="51.8991070" lon="7.1886880">
        <ele>66.1600000</ele>
        <time>2013-10-31T09:08:24Z</time>
      </trkpt>
      <trkpt lat="51.8994860" lon="7.1884250">
        <ele>67.4150000</ele>
        <time>2013-10-31T09:08:36Z</time>
      </trkpt>
      <trkpt lat="51.8998360" lon="7.1883310">
        <ele>68.0450000</ele>
        <time>2013-10-31T09:08:46Z</time>
      </trkpt>
      <trkpt lat="51.9001870" lon="7.1882620">
        <ele>68.9530000</ele>
        <time>2013-10-31T09:08:56Z</time>
      </trkpt>
      <trkpt lat="51.9007160" lon="7.1881590">
        <ele>69.7730000</ele>
        <time>2013-10-31T09:09:10Z</time>
      </trkpt>
      <trkpt lat="51.9012360" lon="7.1880580">
        <ele>69.8250000</ele>
        <time>2013-10-31T09:09:25Z</time>
      </trkpt>
      <trkpt lat="51.9015890" lon="7.1879970">
        <ele>70.2700000</ele>
        <time>2013-10-31T09:09:34Z</time>
      </trkpt>
      <trkpt lat="51.9019060" lon="7.1879520">
        <ele>70.5480000</ele>
        <time>2013-10-31T09:09:42Z</time>
      </trkpt>
      <trkpt lat="51.9027290" lon="7.1877730">
        <ele>70.6170000</ele>
        <time>2013-10-31T09:10:03Z</time>
      </trkpt>
      <trkpt lat="51.9034340" lon="7.1876100">
        <ele>71.2630000</ele>
        <time>2013-10-31T09:10:21Z</time>
      </trkpt>
      <trkpt lat="51.9039710" lon="7.1875170">
        <ele>70.8900000</ele>
        <time>2013-10-31T09:10:34Z</time>
      </trkpt>
      <trkpt lat="51.9041440" lon="7.1874620">
        <ele>70.9160000</ele>
        <time>2013-10-31T09:10:38Z</time>
      </trkpt>
      <trkpt lat="51.9042450" lon="7.1877920">
        <ele>70.9850000</ele>
        <time>2013-10-31T09:10:42Z</time>
      </trkpt>
      <trkpt lat="51.9048022" lon="7.1873018">
        <ele>81.0742188</ele>
      </trkpt>
      <trkpt lat="51.9058083" lon="7.1867645">
        <ele>81.9140625</ele>
      </trkpt>
      <trkpt lat="51.9061227" lon="7.1863039">
        <ele>81.9882813</ele>
      </trkpt>
      <trkpt lat="51.9053053" lon="7.1871483">
        <ele>81.0742188</ele>
      </trkpt>
      <trkpt lat="51.9044249" lon="7.1873786">
        <ele>81.0742188</ele>
      </trkpt>
      <trkpt lat="51.9043620" lon="7.1876856">
        <ele>81.0742188</ele>
      </trkpt>
      <trkpt lat="51.9042450" lon="7.1877920">
        <ele>70.9850000</ele>
        <time>2013-10-31T09:10:42Z</time>
      </trkpt>
      <trkpt lat="51.9049900" lon="7.1887000">
        <ele>68.5840000</ele>
        <time>2013-10-31T09:11:00Z</time>
      </trkpt>
      <trkpt lat="51.9055210" lon="7.1891870">
        <ele>68.3100000</ele>
        <time>2013-10-31T09:11:12Z</time>
      </trkpt>
      <trkpt lat="51.9062900" lon="7.1898910">
        <ele>69.9320000</ele>
        <time>2013-10-31T09:11:33Z</time>
      </trkpt>
      <trkpt lat="51.9064950" lon="7.1900800">
        <ele>70.8660000</ele>
        <time>2013-10-31T09:11:43Z</time>
      </trkpt>
      <trkpt lat="51.9069880" lon="7.1905390">
        <ele>73.2290000</ele>
        <time>2013-10-31T09:11:54Z</time>
      </trkpt>
      <trkpt lat="51.9076080" lon="7.1911150">
        <ele>76.4660000</ele>
        <time>2013-10-31T09:12:16Z</time>
      </trkpt>
      <trkpt lat="51.9077830" lon="7.1912890">
        <ele>78.0730000</ele>
        <time>2013-10-31T09:12:23Z</time>
      </trkpt>
      <trkpt lat="51.9080120" lon="7.1915500">
        <ele>76.9640000</ele>
        <time>2013-10-31T09:12:31Z</time>
      </trkpt>
      <trkpt lat="51.9082640" lon="7.1918890">
        <ele>75.7420000</ele>
        <time>2013-10-31T09:12:38Z</time>
      </trkpt>
      <trkpt lat="51.9089890" lon="7.1928870">
        <ele>77.5530000</ele>
        <time>2013-10-31T09:13:00Z</time>
      </trkpt>
      <trkpt lat="51.9094930" lon="7.1935210">
        <ele>80.8680000</ele>
        <time>2013-10-31T09:13:18Z</time>
      </trkpt>
      <trkpt lat="51.9099580" lon="7.1938150">
        <ele>82.1860000</ele>
        <time>2013-10-31T09:13:32Z</time>
      </trkpt>
      <trkpt lat="51.9104500" lon="7.1941260">
        <ele>82.6670000</ele>
        <time>2013-10-31T09:13:46Z</time>
      </trkpt>
      <trkpt lat="51.9110440" lon="7.1945020">
        <ele>82.2510000</ele>
        <time>2013-10-31T09:14:01Z</time>
      </trkpt>
      <trkpt lat="51.9115370" lon="7.1948130">
        <ele>82.1330000</ele>
        <time>2013-10-31T09:14:16Z</time>
      </trkpt>
      <trkpt lat="51.9116600" lon="7.1948900">
        <ele>81.8890000</ele>
        <time>2013-10-31T09:14:20Z</time>
      </trkpt>
      <trkpt lat="51.9124670" lon="7.1953970">
        <ele>79.5800000</ele>
        <time>2013-10-31T09:14:38Z</time>
      </trkpt>
      <trkpt lat="51.9133880" lon="7.1959760">
        <ele>78.9140000</ele>
        <time>2013-10-31T09:14:58Z</time>
      </trkpt>
      <trkpt lat="51.9140020" lon="7.1963610">
        <ele>77.9400000</ele>
        <time>2013-10-31T09:15:12Z</time>
      </trkpt>
      <trkpt lat="51.9144320" lon="7.1966310">
        <ele>77.9600000</ele>
        <time>2013-10-31T09:15:22Z</time>
      </trkpt>
      <trkpt lat="51.9152320" lon="7.1971400">
        <ele>77.7250000</ele>
        <time>2013-10-31T09:15:40Z</time>
      </trkpt>
      <trkpt lat="51.9156220" lon="7.1974950">
        <ele>77.9240000</ele>
        <time>2013-10-31T09:15:50Z</time>
      </trkpt>
      <trkpt lat="51.9162760" lon="7.1978450">
        <ele>77.8580000</ele>
        <time>2013-10-31T09:16:06Z</time>
      </trkpt>
      <trkpt lat="51.9169510" lon="7.1982140">
        <ele>79.1350000</ele>
        <time>2013-10-31T09:16:22Z</time>
      </trkpt>
      <trkpt lat="51.9175560" lon="7.1985740">
        <ele>81.0030000</ele>
        <time>2013-10-31T09:16:37Z</time>
      </trkpt>
      <trkpt lat="51.9182110" lon="7.1989630">
        <ele>81.8570000</ele>
        <time>2013-10-31T09:16:58Z</time>
      </trkpt>
      <trkpt lat="51.9189880" lon="7.1992690">
        <ele>81.9100000</ele>
        <time>2013-10-31T09:17:13Z</time>
      </trkpt>
      <trkpt lat="51.9197090" lon="7.1998750">
        <ele>81.9770000</ele>
        <time>2013-10-31T09:17:33Z</time>
      </trkpt>
      <trkpt lat="51.9199610" lon="7.2006970">
        <ele>85.1930000</ele>
        <time>2013-10-31T09:17:49Z</time>
      </trkpt>
      <trkpt lat="51.9202120" lon="7.2013710">
        <ele>85.3560000</ele>
        <time>2013-10-31T09:18:05Z</time>
      </trkpt>
      <trkpt lat="51.9203510" lon="7.2012860">
        <ele>85.4110000</ele>
        <time>2013-10-31T09:18:11Z</time>
      </trkpt>
      <trkpt lat="51.9208900" lon="7.2008840">
        <ele>84.8480000</ele>
        <time>2013-10-31T09:18:26Z</time>
      </trkpt>
      <trkpt lat="51.9220360" lon="7.2000350">
        <ele>85.7940000</ele>
        <time>2013-10-31T09:18:54Z</time>
      </trkpt>
      <trkpt lat="51.9231600" lon="7.1991910">
        <ele>83.8080000</ele>
        <time>2013-10-31T09:19:21Z</time>
      </trkpt>
      <trkpt lat="51.9235240" lon="7.1989080">
        <ele>83.8920000</ele>
        <time>2013-10-31T09:19:30Z</time>
      </trkpt>
      <trkpt lat="51.9239670" lon="7.1985630">
        <ele>84.1600000</ele>
        <time>2013-10-31T09:19:42Z</time>
      </trkpt>
      <trkpt lat="51.9238700" lon="7.1982930">
        <ele>83.6140000</ele>
        <time>2013-10-31T09:19:50Z</time>
      </trkpt>
      <trkpt lat="51.9237860" lon="7.1981420">
        <ele>84.1520000</ele>
        <time>2013-10-31T09:19:59Z</time>
      </trkpt>
      <trkpt lat="51.9235800" lon="7.1977730">
        <ele>83.2550000</ele>
        <time>2013-10-31T09:20:07Z</time>
      </trkpt>
      <trkpt lat="51.9231300" lon="7.1969670">
        <ele>81.8490000</ele>
        <time>2013-10-31T09:20:20Z</time>
      </trkpt>
      <trkpt lat="51.9228440" lon="7.1966120">
        <ele>81.9950000</ele>
        <time>2013-10-31T09:20:26Z</time>
      </trkpt>
      <trkpt lat="51.9219510" lon="7.1961930">
        <ele>81.8730000</ele>
        <time>2013-10-31T09:20:46Z</time>
      </trkpt>
      <trkpt lat="51.9212910" lon="7.1959400">
        <ele>81.0540000</ele>
        <time>2013-10-31T09:21:01Z</time>
      </trkpt>
      <trkpt lat="51.9203810" lon="7.1955910">
        <ele>81.0580000</ele>
        <time>2013-10-31T09:21:21Z</time>
      </trkpt>
      <trkpt lat="51.9195290" lon="7.1952640">
        <ele>80.1390000</ele>
        <time>2013-10-31T09:21:41Z</time>
      </trkpt>
      <trkpt lat="51.9189960" lon="7.1949540">
        <ele>78.3030000</ele>
        <time>2013-10-31T09:21:54Z</time>
      </trkpt>
      <trkpt lat="51.9180430" lon="7.1942840">
        <ele>78.6650000</ele>
        <time>2013-10-31T09:22:18Z</time>
      </trkpt>
      <trkpt lat="51.9177900" lon="7.1941060">
        <ele>78.4430000</ele>
        <time>2013-10-31T09:22:24Z</time>
      </trkpt>
      <trkpt lat="51.9176050" lon="7.1936850">
        <ele>77.8910000</ele>
        <time>2013-10-31T09:22:31Z</time>
      </trkpt>
      <trkpt lat="51.9171120" lon="7.1922650">
        <ele>77.6840000</ele>
        <time>2013-10-31T09:22:55Z</time>
      </trkpt>
      <trkpt lat="51.9170160" lon="7.1919860">
        <ele>77.0800000</ele>
        <time>2013-10-31T09:23:10Z</time>
      </trkpt>
      <trkpt lat="51.9170160" lon="7.1919860">
        <ele>77.8350000</ele>
        <time>2013-10-31T09:23:31Z</time>
      </trkpt>
      <trkpt lat="51.9167610" lon="7.1915790">
        <ele>77.1000000</ele>
        <time>2013-10-31T09:23:42Z</time>
      </trkpt>
      <trkpt lat="51.9162830" lon="7.1908290">
        <ele>75.8410000</ele>
        <time>2013-10-31T09:23:59Z</time>
      </trkpt>
      <trkpt lat="51.9156540" lon="7.1898420">
        <ele>75.4140000</ele>
        <time>2013-10-31T09:24:19Z</time>
      </trkpt>
      <trkpt lat="51.9151460" lon="7.1890460">
        <ele>77.9760000</ele>
        <time>2013-10-31T09:24:38Z</time>
      </trkpt>
      <trkpt lat="51.9152730" lon="7.1887570">
        <ele>79.2190000</ele>
        <time>2013-10-31T09:24:43Z</time>
      </trkpt>
      <trkpt lat="51.9158790" lon="7.1877640">
        <ele>79.6750000</ele>
        <time>2013-10-31T09:25:03Z</time>
      </trkpt>
      <trkpt lat="51.9165560" lon="7.1866540">
        <ele>80.0420000</ele>
        <time>2013-10-31T09:25:26Z</time>
      </trkpt>
      <trkpt lat="51.9166470" lon="7.1865070">
        <ele>79.7970000</ele>
        <time>2013-10-31T09:25:29Z</time>
      </trkpt>
      <trkpt lat="51.9165550" lon="7.1862390">
        <ele>79.1980000</ele>
        <time>2013-10-31T09:25:33Z</time>
      </trkpt>
      <trkpt lat="51.9165010" lon="7.1861040">
        <ele>79.2330000</ele>
        <time>2013-10-31T09:25:35Z</time>
      </trkpt>
      <trkpt lat="51.9163660" lon="7.1856330">
        <ele>79.2780000</ele>
        <time>2013-10-31T09:25:43Z</time>
      </trkpt>
      <trkpt lat="51.9160150" lon="7.1843850">
        <ele>79.8700000</ele>
        <time>2013-10-31T09:26:04Z</time>
      </trkpt>
      <trkpt lat="51.9156360" lon="7.1830360">
        <ele>79.8900000</ele>
        <time>2013-10-31T09:26:26Z</time>
      </trkpt>
      <trkpt lat="51.9155310" lon="7.1826640">
        <ele>80.9920000</ele>
        <time>2013-10-31T09:26:32Z</time>
      </trkpt>
      <trkpt lat="51.9154970" lon="7.1825420">
        <ele>80.2240000</ele>
        <time>2013-10-31T09:26:34Z</time>
      </trkpt>
      <trkpt lat="51.9152460" lon="7.1816110">
        <ele>80.6770000</ele>
        <time>2013-10-31T09:26:49Z</time>
      </trkpt>
      <trkpt lat="51.9149130" lon="7.1802090">
        <ele>82.5640000</ele>
        <time>2013-10-31T09:27:11Z</time>
      </trkpt>
      <trkpt lat="51.9149160" lon="7.1787810">
        <ele>82.8110000</ele>
        <time>2013-10-31T09:27:33Z</time>
      </trkpt>
      <trkpt lat="51.9149470" lon="7.1783910">
        <ele>84.0110000</ele>
        <time>2013-10-31T09:27:41Z</time>
      </trkpt>
      <trkpt lat="51.9149380" lon="7.1783360">
        <ele>84.0210000</ele>
        <time>2013-10-31T09:27:45Z</time>
      </trkpt>
      <trkpt lat="51.9148510" lon="7.1781170">
        <ele>83.8140000</ele>
        <time>2013-10-31T09:27:51Z</time>
      </trkpt>
      <trkpt lat="51.9147940" lon="7.1779760">
        <ele>83.1770000</ele>
        <time>2013-10-31T09:27:56Z</time>
      </trkpt>
      <trkpt lat="51.9146790" lon="7.1776880">
        <ele>84.3890000</ele>
        <time>2013-10-31T09:28:09Z</time>
      </trkpt>
      <trkpt lat="51.9146790" lon="7.1776880">
        <ele>84.9400000</ele>
        <time>2013-10-31T09:28:53Z</time>
      </trkpt>
      <trkpt lat="51.9144370" lon="7.1773790">
        <ele>82.6530000</ele>
        <time>2013-10-31T09:29:03Z</time>
      </trkpt>
      <trkpt lat="51.9142290" lon="7.1773020">
        <ele>82.0360000</ele>
        <time>2013-10-31T09:29:08Z</time>
      </trkpt>
      <trkpt lat="51.9141240" lon="7.1772640">
        <ele>83.4460000</ele>
        <time>2013-10-31T09:29:11Z</time>
      </trkpt>
      <trkpt lat="51.9135730" lon="7.1770630">
        <ele>81.2470000</ele>
        <time>2013-10-31T09:29:24Z</time>
      </trkpt>
      <trkpt lat="51.9130840" lon="7.1768710">
        <ele>78.8260000</ele>
        <time>2013-10-31T09:29:34Z</time>
      </trkpt>
      <trkpt lat="51.9122690" lon="7.1765450">
        <ele>75.7040000</ele>
        <time>2013-10-31T09:29:49Z</time>
      </trkpt>
      <trkpt lat="51.9116310" lon="7.1762900">
        <ele>73.6840000</ele>
        <time>2013-10-31T09:30:01Z</time>
      </trkpt>
      <trkpt lat="51.9107980" lon="7.1758300">
        <ele>73.6030000</ele>
        <time>2013-10-31T09:30:18Z</time>
      </trkpt>
      <trkpt lat="51.9100470" lon="7.1747740">
        <ele>71.9890000</ele>
        <time>2013-10-31T09:30:38Z</time>
      </trkpt>
      <trkpt lat="51.9091390" lon="7.1737020">
        <ele>72.5670000</ele>
        <time>2013-10-31T09:31:02Z</time>
      </trkpt>
      <trkpt lat="51.9083450" lon="7.1727760">
        <ele>71.8940000</ele>
        <time>2013-10-31T09:31:23Z</time>
      </trkpt>
      <trkpt lat="51.9076630" lon="7.1716800">
        <ele>70.1650000</ele>
        <time>2013-10-31T09:31:44Z</time>
      </trkpt>
      <trkpt lat="51.9072960" lon="7.1710320">
        <ele>71.8180000</ele>
        <time>2013-10-31T09:31:58Z</time>
      </trkpt>
      <trkpt lat="51.9071060" lon="7.1705380">
        <ele>72.6740000</ele>
        <time>2013-10-31T09:32:08Z</time>
      </trkpt>
      <trkpt lat="51.9073810" lon="7.1703020">
        <ele>72.5350000</ele>
        <time>2013-10-31T09:32:15Z</time>
      </trkpt>
      <trkpt lat="51.9079940" lon="7.1701010">
        <ele>72.7290000</ele>
        <time>2013-10-31T09:32:29Z</time>
      </trkpt>
      <trkpt lat="51.9087890" lon="7.1698390">
        <ele>72.2330000</ele>
        <time>2013-10-31T09:32:47Z</time>
      </trkpt>
      <trkpt lat="51.9098530" lon="7.1694900">
        <ele>71.9160000</ele>
        <time>2013-10-31T09:33:11Z</time>
      </trkpt>
      <trkpt lat="51.9108890" lon="7.1691150">
        <ele>71.7840000</ele>
        <time>2013-10-31T09:33:33Z</time>
      </trkpt>
      <trkpt lat="51.9113220" lon="7.1688590">
        <ele>72.2510000</ele>
        <time>2013-10-31T09:33:43Z</time>
      </trkpt>
      <trkpt lat="51.9115100" lon="7.1686490">
        <ele>72.0440000</ele>
        <time>2013-10-31T09:33:48Z</time>
      </trkpt>
      <trkpt lat="51.9120270" lon="7.1679790">
        <ele>71.2410000</ele>
        <time>2013-10-31T09:34:03Z</time>
      </trkpt>
      <trkpt lat="51.9120960" lon="7.1678830">
        <ele>71.2360000</ele>
        <time>2013-10-31T09:34:05Z</time>
      </trkpt>
      <trkpt lat="51.9127280" lon="7.1670130">
        <ele>71.4010000</ele>
        <time>2013-10-31T09:34:23Z</time>
      </trkpt>
      <trkpt lat="51.9132240" lon="7.1663290">
        <ele>71.8440000</ele>
        <time>2013-10-31T09:34:38Z</time>
      </trkpt>
      <trkpt lat="51.9134620" lon="7.1660010">
        <ele>72.1260000</ele>
        <time>2013-10-31T09:34:45Z</time>
      </trkpt>
      <trkpt lat="51.9137990" lon="7.1654420">
        <ele>71.4630000</ele>
        <time>2013-10-31T09:34:59Z</time>
      </trkpt>
      <trkpt lat="51.9137430" lon="7.1653650">
        <ele>71.1220000</ele>
        <time>2013-10-31T09:35:01Z</time>
      </trkpt>
      <trkpt lat="51.9131610" lon="7.1645730">
        <ele>69.4970000</ele>
        <time>2013-10-31T09:35:17Z</time>
      </trkpt>
      <trkpt lat="51.9130770" lon="7.1644580">
        <ele>69.1940000</ele>
        <time>2013-10-31T09:35:20Z</time>
      </trkpt>
      <trkpt lat="51.9127500" lon="7.1640420">
        <ele>69.1970000</ele>
        <time>2013-10-31T09:35:29Z</time>
      </trkpt>
      <trkpt lat="51.9122260" lon="7.1634440">
        <ele>68.1990000</ele>
        <time>2013-10-31T09:35:42Z</time>
      </trkpt>
      <trkpt lat="51.9119860" lon="7.1631710">
        <ele>68.8340000</ele>
        <time>2013-10-31T09:35:48Z</time>
      </trkpt>
      <trkpt lat="51.9112190" lon="7.1629720">
        <ele>68.2100000</ele>
        <time>2013-10-31T09:36:05Z</time>
      </trkpt>
      <trkpt lat="51.9109140" lon="7.1628930">
        <ele>68.1480000</ele>
        <time>2013-10-31T09:36:12Z</time>
      </trkpt>
      <trkpt lat="51.9107260" lon="7.1627670">
        <ele>68.3020000</ele>
        <time>2013-10-31T09:36:17Z</time>
      </trkpt>
      <trkpt lat="51.9100330" lon="7.1616160">
        <ele>67.8140000</ele>
        <time>2013-10-31T09:36:38Z</time>
      </trkpt>
      <trkpt lat="51.9100020" lon="7.1615490">
        <ele>67.4740000</ele>
        <time>2013-10-31T09:36:39Z</time>
      </trkpt>
      <trkpt lat="51.9094090" lon="7.1601080">
        <ele>66.3120000</ele>
        <time>2013-10-31T09:37:00Z</time>
      </trkpt>
      <trkpt lat="51.9087900" lon="7.1592910">
        <ele>66.8100000</ele>
        <time>2013-10-31T09:37:18Z</time>
      </trkpt>
      <trkpt lat="51.9087510" lon="7.1592400">
        <ele>66.1730000</ele>
        <time>2013-10-31T09:37:19Z</time>
      </trkpt>
      <trkpt lat="51.9080570" lon="7.1582480">
        <ele>65.6090000</ele>
        <time>2013-10-31T09:37:38Z</time>
      </trkpt>
      <trkpt lat="51.9076360" lon="7.1577720">
        <ele>65.6560000</ele>
        <time>2013-10-31T09:37:49Z</time>
      </trkpt>
      <trkpt lat="51.9071710" lon="7.1575240">
        <ele>66.0660000</ele>
        <time>2013-10-31T09:38:02Z</time>
      </trkpt>
      <trkpt lat="51.9069580" lon="7.1580910">
        <ele>66.8510000</ele>
        <time>2013-10-31T09:38:13Z</time>
      </trkpt>
      <trkpt lat="51.9065850" lon="7.1592960">
        <ele>68.4380000</ele>
        <time>2013-10-31T09:38:34Z</time>
      </trkpt>
      <trkpt lat="51.9062210" lon="7.1607240">
        <ele>67.7180000</ele>
        <time>2013-10-31T09:38:55Z</time>
      </trkpt>
      <trkpt lat="51.9058090" lon="7.1623410">
        <ele>67.1510000</ele>
        <time>2013-10-31T09:39:18Z</time>
      </trkpt>
      <trkpt lat="51.9054740" lon="7.1636530">
        <ele>68.1930000</ele>
        <time>2013-10-31T09:39:38Z</time>
      </trkpt>
      <trkpt lat="51.9050650" lon="7.1652610">
        <ele>69.6380000</ele>
        <time>2013-10-31T09:40:04Z</time>
      </trkpt>
      <trkpt lat="51.9048720" lon="7.1660160">
        <ele>70.5210000</ele>
        <time>2013-10-31T09:40:18Z</time>
      </trkpt>
      <trkpt lat="51.9047130" lon="7.1668800">
        <ele>70.8640000</ele>
        <time>2013-10-31T09:40:34Z</time>
      </trkpt>
      <trkpt lat="51.9046540" lon="7.1683090">
        <ele>71.5970000</ele>
        <time>2013-10-31T09:40:56Z</time>
      </trkpt>
      <trkpt lat="51.9044440" lon="7.1687100">
        <ele>70.8550000</ele>
        <time>2013-10-31T09:41:05Z</time>
      </trkpt>
      <trkpt lat="51.9039980" lon="7.1692710">
        <ele>70.8610000</ele>
        <time>2013-10-31T09:41:18Z</time>
      </trkpt>
      <trkpt lat="51.9032960" lon="7.1701550">
        <ele>70.0490000</ele>
        <time>2013-10-31T09:41:38Z</time>
      </trkpt>
      <trkpt lat="51.9021980" lon="7.1715400">
        <ele>68.4710000</ele>
        <time>2013-10-31T09:42:10Z</time>
      </trkpt>
      <trkpt lat="51.9015980" lon="7.1722980">
        <ele>68.3030000</ele>
        <time>2013-10-31T09:42:28Z</time>
      </trkpt>
      <trkpt lat="51.9009110" lon="7.1731650">
        <ele>68.5250000</ele>
        <time>2013-10-31T09:42:48Z</time>
      </trkpt>
      <trkpt lat="51.9007770" lon="7.1733330">
        <ele>67.6390000</ele>
        <time>2013-10-31T09:42:52Z</time>
      </trkpt>
      <trkpt lat="51.9007020" lon="7.1734290">
        <ele>67.1810000</ele>
        <time>2013-10-31T09:42:57Z</time>
      </trkpt>
      <trkpt lat="51.8996690" lon="7.1747520">
        <ele>67.4260000</ele>
        <time>2013-10-31T09:43:26Z</time>
      </trkpt>
      <trkpt lat="51.8985030" lon="7.1762460">
        <ele>67.1360000</ele>
        <time>2013-10-31T09:44:02Z</time>
      </trkpt>
      <trkpt lat="51.8975640" lon="7.1774420">
        <ele>64.6700000</ele>
        <time>2013-10-31T09:44:30Z</time>
      </trkpt>
      <trkpt lat="51.8970340" lon="7.1780710">
        <ele>65.5920000</ele>
        <time>2013-10-31T09:44:47Z</time>
      </trkpt>
      <trkpt lat="51.8968730" lon="7.1780250">
        <ele>65.3060000</ele>
        <time>2013-10-31T09:44:51Z</time>
      </trkpt>
      <trkpt lat="51.8962940" lon="7.1772640">
        <ele>64.4000000</ele>
        <time>2013-10-31T09:45:07Z</time>
      </trkpt>
      <trkpt lat="51.8956200" lon="7.1763800">
        <ele>64.6770000</ele>
        <time>2013-10-31T09:45:28Z</time>
      </trkpt>
      <trkpt lat="51.8954810" lon="7.1764410">
        <ele>64.6070000</ele>
        <time>2013-10-31T09:45:32Z</time>
      </trkpt>
      <trkpt lat="51.8948780" lon="7.1775460">
        <ele>64.6730000</ele>
        <time>2013-10-31T09:45:53Z</time>
      </trkpt>
      <trkpt lat="51.8943780" lon="7.1782190">
        <ele>64.6890000</ele>
        <time>2013-10-31T09:46:09Z</time>
      </trkpt>
      <trkpt lat="51.8936440" lon="7.1789840">
        <ele>64.9030000</ele>
        <time>2013-10-31T09:46:29Z</time>
      </trkpt>
      <trkpt lat="51.8935060" lon="7.1791220">
        <ele>65.0150000</ele>
        <time>2013-10-31T09:46:40Z</time>
      </trkpt>
      <trkpt lat="51.8935060" lon="7.1791220">
        <ele>65.6460000</ele>
        <time>2013-10-31T09:46:55Z</time>
      </trkpt>
      <trkpt lat="51.8934500" lon="7.1791780">
        <ele>64.8560000</ele>
        <time>2013-10-31T09:46:59Z</time>
      </trkpt>
      <trkpt lat="51.8928890" lon="7.1795390">
        <ele>63.9770000</ele>
        <time>2013-10-31T09:47:16Z</time>
      </trkpt>
      <trkpt lat="51.8921890" lon="7.1799420">
        <ele>64.5540000</ele>
        <time>2013-10-31T09:47:34Z</time>
      </trkpt>
      <trkpt lat="51.8917780" lon="7.1798730">
        <ele>64.6180000</ele>
        <time>2013-10-31T09:47:45Z</time>
      </trkpt>
      <trkpt lat="51.8911960" lon="7.1797760">
        <ele>64.6670000</ele>
        <time>2013-10-31T09:47:58Z</time>
      </trkpt>
      <trkpt lat="51.8907080" lon="7.1796860">
        <ele>63.3770000</ele>
        <time>2013-10-31T09:48:11Z</time>
      </trkpt>
      <trkpt lat="51.8900970" lon="7.1795720">
        <ele>61.0670000</ele>
        <time>2013-10-31T09:48:23Z</time>
      </trkpt>
      <trkpt lat="51.8897680" lon="7.1796660">
        <ele>61.1800000</ele>
        <time>2013-10-31T09:48:31Z</time>
      </trkpt>
      <trkpt lat="51.8891720" lon="7.1807140">
        <ele>62.1900000</ele>
        <time>2013-10-31T09:48:51Z</time>
      </trkpt>
      <trkpt lat="51.8885780" lon="7.1811620">
        <ele>61.2060000</ele>
        <time>2013-10-31T09:49:09Z</time>
      </trkpt>
      <trkpt lat="51.8878970" lon="7.1813610">
        <ele>59.5740000</ele>
        <time>2013-10-31T09:49:28Z</time>
      </trkpt>
      <trkpt lat="51.8873590" lon="7.1815190">
        <ele>60.2460000</ele>
        <time>2013-10-31T09:49:41Z</time>
      </trkpt>
      <trkpt lat="51.8869760" lon="7.1816240">
        <ele>60.5730000</ele>
        <time>2013-10-31T09:49:50Z</time>
      </trkpt>
      <trkpt lat="51.8868460" lon="7.1816560">
        <ele>60.5050000</ele>
        <time>2013-10-31T09:49:53Z</time>
      </trkpt>
      <trkpt lat="51.8860490" lon="7.1813120">
        <ele>60.0580000</ele>
        <time>2013-10-31T09:50:12Z</time>
      </trkpt>
      <trkpt lat="51.8851800" lon="7.1806690">
        <ele>59.3980000</ele>
        <time>2013-10-31T09:50:33Z</time>
      </trkpt>
      <trkpt lat="51.8843520" lon="7.1800100">
        <ele>58.3920000</ele>
        <time>2013-10-31T09:50:54Z</time>
      </trkpt>
      <trkpt lat="51.8832130" lon="7.1791040">
        <ele>57.1270000</ele>
        <time>2013-10-31T09:51:22Z</time>
      </trkpt>
      <trkpt lat="51.8822350" lon="7.1783250">
        <ele>57.2900000</ele>
        <time>2013-10-31T09:51:48Z</time>
      </trkpt>
      <trkpt lat="51.8813360" lon="7.1775710">
        <ele>56.4810000</ele>
        <time>2013-10-31T09:52:11Z</time>
      </trkpt>
      <trkpt lat="51.8804990" lon="7.1766800">
        <ele>56.8070000</ele>
        <time>2013-10-31T09:52:33Z</time>
      </trkpt>
      <trkpt lat="51.8796820" lon="7.1758100">
        <ele>55.8950000</ele>
        <time>2013-10-31T09:52:56Z</time>
      </trkpt>
      <trkpt lat="51.8788010" lon="7.1748720">
        <ele>55.0330000</ele>
        <time>2013-10-31T09:53:20Z</time>
      </trkpt>
      <trkpt lat="51.8782050" lon="7.1742370">
        <ele>54.6110000</ele>
        <time>2013-10-31T09:53:37Z</time>
      </trkpt>
      <trkpt lat="51.8778030" lon="7.1737550">
        <ele>55.4400000</ele>
        <time>2013-10-31T09:53:52Z</time>
      </trkpt>
      <trkpt lat="51.8778030" lon="7.1737550">
        <ele>55.9500000</ele>
        <time>2013-10-31T09:53:58Z</time>
      </trkpt>
      <trkpt lat="51.8775390" lon="7.1734090">
        <ele>55.1820000</ele>
        <time>2013-10-31T09:54:10Z</time>
      </trkpt>
      <trkpt lat="51.8772090" lon="7.1724110">
        <ele>55.6070000</ele>
        <time>2013-10-31T09:54:25Z</time>
      </trkpt>
      <trkpt lat="51.8771160" lon="7.1720920">
        <ele>55.0330000</ele>
        <time>2013-10-31T09:54:30Z</time>
      </trkpt>
      <trkpt lat="51.8768040" lon="7.1710140">
        <ele>54.1870000</ele>
        <time>2013-10-31T09:54:46Z</time>
      </trkpt>
      <trkpt lat="51.8764330" lon="7.1696910">
        <ele>53.6060000</ele>
        <time>2013-10-31T09:55:06Z</time>
      </trkpt>
      <trkpt lat="51.8760870" lon="7.1684020">
        <ele>54.2440000</ele>
        <time>2013-10-31T09:55:26Z</time>
      </trkpt>
      <trkpt lat="51.8756930" lon="7.1669290">
        <ele>54.3220000</ele>
        <time>2013-10-31T09:55:49Z</time>
      </trkpt>
      <trkpt lat="51.8752940" lon="7.1654410">
        <ele>54.1220000</ele>
        <time>2013-10-31T09:56:12Z</time>
      </trkpt>
      <trkpt lat="51.8750000" lon="7.1643430">
        <ele>53.6080000</ele>
        <time>2013-10-31T09:56:29Z</time>
      </trkpt>
      <trkpt lat="51.8748650" lon="7.1638400">
        <ele>53.5790000</ele>
        <time>2013-10-31T09:56:37Z</time>
      </trkpt>
      <trkpt lat="51.8746860" lon="7.1635360">
        <ele>53.1380000</ele>
        <time>2013-10-31T09:56:42Z</time>
      </trkpt>
      <trkpt lat="51.8740570" lon="7.1628460">
        <ele>52.6970000</ele>
        <time>2013-10-31T09:57:00Z</time>
      </trkpt>
      <trkpt lat="51.8735000" lon="7.1622350">
        <ele>52.3860000</ele>
        <time>2013-10-31T09:57:16Z</time>
      </trkpt>
      <trkpt lat="51.8731520" lon="7.1613280">
        <ele>52.4860000</ele>
        <time>2013-10-31T09:57:32Z</time>
      </trkpt>
      <trkpt lat="51.8726170" lon="7.1597270">
        <ele>52.6760000</ele>
        <time>2013-10-31T09:57:59Z</time>
      </trkpt>
      <trkpt lat="51.8722320" lon="7.1585320">
        <ele>52.0360000</ele>
        <time>2013-10-31T09:58:19Z</time>
      </trkpt>
      <trkpt lat="51.8722060" lon="7.1584430">
        <ele>50.9580000</ele>
        <time>2013-10-31T09:58:21Z</time>
      </trkpt>
      <trkpt lat="51.8716190" lon="7.1585750">
        <ele>52.1650000</ele>
        <time>2013-10-31T09:58:34Z</time>
      </trkpt>
      <trkpt lat="51.8705650" lon="7.1587960">
        <ele>51.5280000</ele>
        <time>2013-10-31T09:58:59Z</time>
      </trkpt>
      <trkpt lat="51.8694940" lon="7.1590220">
        <ele>51.2950000</ele>
        <time>2013-10-31T09:59:23Z</time>
      </trkpt>
      <trkpt lat="51.8687550" lon="7.1591750">
        <ele>50.7090000</ele>
        <time>2013-10-31T09:59:40Z</time>
      </trkpt>
      <trkpt lat="51.8680060" lon="7.1593240">
        <ele>50.6110000</ele>
        <time>2013-10-31T09:59:57Z</time>
      </trkpt>
      <trkpt lat="51.8672130" lon="7.1594800">
        <ele>50.8800000</ele>
        <time>2013-10-31T10:00:16Z</time>
      </trkpt>
      <trkpt lat="51.8663190" lon="7.1596570">
        <ele>50.3070000</ele>
        <time>2013-10-31T10:00:37Z</time>
      </trkpt>
      <trkpt lat="51.8655120" lon="7.1598170">
        <ele>49.9860000</ele>
        <time>2013-10-31T10:00:56Z</time>
      </trkpt>
      <trkpt lat="51.8649010" lon="7.1599380">
        <ele>48.0580000</ele>
        <time>2013-10-31T10:01:11Z</time>
      </trkpt>
      <trkpt lat="51.8647650" lon="7.1596670">
        <ele>49.6790000</ele>
        <time>2013-10-31T10:01:16Z</time>
      </trkpt>
      <trkpt lat="51.8645160" lon="7.1584610">
        <ele>50.1130000</ele>
        <time>2013-10-31T10:01:35Z</time>
      </trkpt>
      <trkpt lat="51.8641510" lon="7.1566910">
        <ele>50.3740000</ele>
        <time>2013-10-31T10:02:03Z</time>
      </trkpt>
      <trkpt lat="51.8638490" lon="7.1552310">
        <ele>48.9940000</ele>
        <time>2013-10-31T10:02:26Z</time>
      </trkpt>
      <trkpt lat="51.8635370" lon="7.1537210">
        <ele>50.7510000</ele>
        <time>2013-10-31T10:02:51Z</time>
      </trkpt>
      <trkpt lat="51.8632370" lon="7.1522690">
        <ele>50.8990000</ele>
        <time>2013-10-31T10:03:15Z</time>
      </trkpt>
      <trkpt lat="51.8630340" lon="7.1512840">
        <ele>49.3630000</ele>
        <time>2013-10-31T10:03:32Z</time>
      </trkpt>
      <trkpt lat="51.8629450" lon="7.1508570">
        <ele>49.6980000</ele>
        <time>2013-10-31T10:03:39Z</time>
      </trkpt>
      <trkpt lat="51.8627370" lon="7.1498540">
        <ele>50.3240000</ele>
        <time>2013-10-31T10:03:56Z</time>
      </trkpt>
      <trkpt lat="51.8624610" lon="7.1485170">
        <ele>50.2440000</ele>
        <time>2013-10-31T10:04:18Z</time>
      </trkpt>
      <trkpt lat="51.8621890" lon="7.1472060">
        <ele>50.8090000</ele>
        <time>2013-10-31T10:04:39Z</time>
      </trkpt>
      <trkpt lat="51.8618920" lon="7.1457700">
        <ele>51.1970000</ele>
        <time>2013-10-31T10:05:02Z</time>
      </trkpt>
      <trkpt lat="51.8616700" lon="7.1446980">
        <ele>51.1320000</ele>
        <time>2013-10-31T10:05:18Z</time>
      </trkpt>
      <trkpt lat="51.8613890" lon="7.1433430">
        <ele>51.6700000</ele>
        <time>2013-10-31T10:05:39Z</time>
      </trkpt>
      <trkpt lat="51.8612310" lon="7.1425800">
        <ele>51.8900000</ele>
        <time>2013-10-31T10:05:51Z</time>
      </trkpt>
      <trkpt lat="51.8609890" lon="7.1414120">
        <ele>51.9270000</ele>
        <time>2013-10-31T10:06:10Z</time>
      </trkpt>
      <trkpt lat="51.8609100" lon="7.1410300">
        <ele>52.1420000</ele>
        <time>2013-10-31T10:06:16Z</time>
      </trkpt>
      <trkpt lat="51.8608310" lon="7.1406460">
        <ele>52.6270000</ele>
        <time>2013-10-31T10:06:28Z</time>
      </trkpt>
      <trkpt lat="51.8607470" lon="7.1402420">
        <ele>52.7210000</ele>
        <time>2013-10-31T10:08:26Z</time>
      </trkpt>
      <trkpt lat="51.8604900" lon="7.1390020">
        <ele>51.5170000</ele>
        <time>2013-10-31T10:08:46Z</time>
      </trkpt>
      <trkpt lat="51.8602830" lon="7.1380000">
        <ele>52.7620000</ele>
        <time>2013-10-31T10:09:02Z</time>
      </trkpt>
      <trkpt lat="51.8601070" lon="7.1371510">
        <ele>52.0650000</ele>
        <time>2013-10-31T10:09:15Z</time>
      </trkpt>
      <trkpt lat="51.8598880" lon="7.1360900">
        <ele>51.9120000</ele>
        <time>2013-10-31T10:09:31Z</time>
      </trkpt>
      <trkpt lat="51.8596160" lon="7.1347800">
        <ele>53.1420000</ele>
        <time>2013-10-31T10:09:51Z</time>
      </trkpt>
      <trkpt lat="51.8594610" lon="7.1340290">
        <ele>52.2260000</ele>
        <time>2013-10-31T10:10:02Z</time>
      </trkpt>
      <trkpt lat="51.8592530" lon="7.1330250">
        <ele>52.3830000</ele>
        <time>2013-10-31T10:10:17Z</time>
      </trkpt>
      <trkpt lat="51.8592110" lon="7.1328210">
        <ele>52.5200000</ele>
        <time>2013-10-31T10:10:20Z</time>
      </trkpt>
      <trkpt lat="51.8590180" lon="7.1321210">
        <ele>52.4600000</ele>
        <time>2013-10-31T10:10:32Z</time>
      </trkpt>
      <trkpt lat="51.8585080" lon="7.1323770">
        <ele>51.8670000</ele>
        <time>2013-10-31T10:10:45Z</time>
      </trkpt>
      <trkpt lat="51.8581320" lon="7.1325830">
        <ele>51.7280000</ele>
        <time>2013-10-31T10:10:55Z</time>
      </trkpt>
      <trkpt lat="51.8580550" lon="7.1326350">
        <ele>51.5140000</ele>
        <time>2013-10-31T10:10:57Z</time>
      </trkpt>
      <trkpt lat="51.8573080" lon="7.1328120">
        <ele>51.5220000</ele>
        <time>2013-10-31T10:11:15Z</time>
      </trkpt>
      <trkpt lat="51.8562300" lon="7.1329400">
        <ele>51.1270000</ele>
        <time>2013-10-31T10:11:40Z</time>
      </trkpt>
      <trkpt lat="51.8553990" lon="7.1330200">
        <ele>50.1960000</ele>
        <time>2013-10-31T10:12:00Z</time>
      </trkpt>
      <trkpt lat="51.8552200" lon="7.1330370">
        <ele>50.6820000</ele>
        <time>2013-10-31T10:12:10Z</time>
      </trkpt>
      <trkpt lat="51.8551590" lon="7.1329230">
        <ele>51.5440000</ele>
        <time>2013-10-31T10:12:13Z</time>
      </trkpt>
      <trkpt lat="51.8553410" lon="7.1322550">
        <ele>50.5760000</ele>
        <time>2013-10-31T10:12:27Z</time>
      </trkpt>
      <trkpt lat="51.8555660" lon="7.1312850">
        <ele>50.8660000</ele>
        <time>2013-10-31T10:12:43Z</time>
      </trkpt>
      <trkpt lat="51.8557820" lon="7.1303310">
        <ele>51.8430000</ele>
        <time>2013-10-31T10:12:58Z</time>
      </trkpt>
      <trkpt lat="51.8559070" lon="7.1298050">
        <ele>52.0990000</ele>
        <time>2013-10-31T10:13:11Z</time>
      </trkpt>
      <trkpt lat="51.8559070" lon="7.1298050">
        <ele>51.8130000</ele>
        <time>2013-10-31T10:13:39Z</time>
      </trkpt>
      <trkpt lat="51.8557950" lon="7.1295780">
        <ele>51.4390000</ele>
        <time>2013-10-31T10:13:48Z</time>
      </trkpt>
      <trkpt lat="51.8557260" lon="7.1296120">
        <ele>52.1560000</ele>
        <time>2013-10-31T10:13:58Z</time>
      </trkpt>
      <trkpt lat="51.8557260" lon="7.1296120">
        <ele>52.0150000</ele>
        <time>2013-10-31T10:14:13Z</time>
      </trkpt>
      <trkpt lat="51.8557260" lon="7.1296120">
        <ele>52.2200000</ele>
        <time>2013-10-31T10:19:18Z</time>
      </trkpt>
      <trkpt lat="51.8556190" lon="7.1296720">
        <ele>52.0220000</ele>
        <time>2013-10-31T10:19:22Z</time>
      </trkpt>
      <trkpt lat="51.8558800" lon="7.1295810">
        <ele>52.4740000</ele>
        <time>2013-10-31T10:19:31Z</time>
      </trkpt>
      <trkpt lat="51.8559280" lon="7.1297010">
        <ele>51.1720000</ele>
        <time>2013-10-31T10:19:37Z</time>
      </trkpt>
      <trkpt lat="51.8555920" lon="7.1309360">
        <ele>50.8850000</ele>
        <time>2013-10-31T10:19:58Z</time>
      </trkpt>
      <trkpt lat="51.8553330" lon="7.1320740">
        <ele>51.2490000</ele>
        <time>2013-10-31T10:20:17Z</time>
      </trkpt>
      <trkpt lat="51.8549510" lon="7.1336760">
        <ele>52.0770000</ele>
        <time>2013-10-31T10:20:42Z</time>
      </trkpt>
      <trkpt lat="51.8544650" lon="7.1356960">
        <ele>50.6120000</ele>
        <time>2013-10-31T10:21:13Z</time>
      </trkpt>
      <trkpt lat="51.8540450" lon="7.1374570">
        <ele>51.8880000</ele>
        <time>2013-10-31T10:21:41Z</time>
      </trkpt>
      <trkpt lat="51.8540120" lon="7.1376870">
        <ele>51.1060000</ele>
        <time>2013-10-31T10:21:45Z</time>
      </trkpt>
      <trkpt lat="51.8540440" lon="7.1380240">
        <ele>50.7080000</ele>
        <time>2013-10-31T10:21:50Z</time>
      </trkpt>
      <trkpt lat="51.8540910" lon="7.1381500">
        <ele>50.9040000</ele>
        <time>2013-10-31T10:21:52Z</time>
      </trkpt>
      <trkpt lat="51.8543740" lon="7.1394580">
        <ele>50.6900000</ele>
        <time>2013-10-31T10:22:10Z</time>
      </trkpt>
      <trkpt lat="51.8546700" lon="7.1411010">
        <ele>50.1520000</ele>
        <time>2013-10-31T10:22:33Z</time>
      </trkpt>
      <trkpt lat="51.8549670" lon="7.1425250">
        <ele>51.0990000</ele>
        <time>2013-10-31T10:22:54Z</time>
      </trkpt>
      <trkpt lat="51.8552690" lon="7.1442730">
        <ele>50.0930000</ele>
        <time>2013-10-31T10:23:19Z</time>
      </trkpt>
      <trkpt lat="51.8556950" lon="7.1465020">
        <ele>51.1860000</ele>
        <time>2013-10-31T10:23:51Z</time>
      </trkpt>
      <trkpt lat="51.8560890" lon="7.1486060">
        <ele>50.5150000</ele>
        <time>2013-10-31T10:24:22Z</time>
      </trkpt>
      <trkpt lat="51.8564090" lon="7.1503070">
        <ele>50.6440000</ele>
        <time>2013-10-31T10:24:47Z</time>
      </trkpt>
      <trkpt lat="51.8567530" lon="7.1520790">
        <ele>50.3310000</ele>
        <time>2013-10-31T10:25:13Z</time>
      </trkpt>
      <trkpt lat="51.8570210" lon="7.1536630">
        <ele>50.1790000</ele>
        <time>2013-10-31T10:25:36Z</time>
      </trkpt>
      <trkpt lat="51.8573880" lon="7.1554820">
        <ele>49.9500000</ele>
        <time>2013-10-31T10:26:03Z</time>
      </trkpt>
      <trkpt lat="51.8576710" lon="7.1570590">
        <ele>50.3110000</ele>
        <time>2013-10-31T10:26:26Z</time>
      </trkpt>
      <trkpt lat="51.8580530" lon="7.1589870">
        <ele>49.1830000</ele>
        <time>2013-10-31T10:26:54Z</time>
      </trkpt>
      <trkpt lat="51.8583580" lon="7.1606560">
        <ele>49.3710000</ele>
        <time>2013-10-31T10:27:18Z</time>
      </trkpt>
      <trkpt lat="51.8586600" lon="7.1619890">
        <ele>49.9480000</ele>
        <time>2013-10-31T10:27:38Z</time>
      </trkpt>
      <trkpt lat="51.8587620" lon="7.1625260">
        <ele>49.8100000</ele>
        <time>2013-10-31T10:27:45Z</time>
      </trkpt>
      <trkpt lat="51.8589990" lon="7.1637810">
        <ele>49.0580000</ele>
        <time>2013-10-31T10:28:03Z</time>
      </trkpt>
      <trkpt lat="51.8593030" lon="7.1656060">
        <ele>49.1450000</ele>
        <time>2013-10-31T10:28:29Z</time>
      </trkpt>
      <trkpt lat="51.8595980" lon="7.1671030">
        <ele>49.9410000</ele>
        <time>2013-10-31T10:28:51Z</time>
      </trkpt>
      <trkpt lat="51.8597530" lon="7.1678600">
        <ele>49.5200000</ele>
        <time>2013-10-31T10:29:02Z</time>
      </trkpt>
      <trkpt lat="51.8599630" lon="7.1687890">
        <ele>49.5490000</ele>
        <time>2013-10-31T10:29:16Z</time>
      </trkpt>
      <trkpt lat="51.8600870" lon="7.1695340">
        <ele>50.0730000</ele>
        <time>2013-10-31T10:29:27Z</time>
      </trkpt>
      <trkpt lat="51.8601000" lon="7.1696810">
        <ele>50.2100000</ele>
        <time>2013-10-31T10:29:29Z</time>
      </trkpt>
      <trkpt lat="51.8602540" lon="7.1715810">
        <ele>50.0390000</ele>
        <time>2013-10-31T10:29:56Z</time>
      </trkpt>
      <trkpt lat="51.8602750" lon="7.1730120">
        <ele>50.7970000</ele>
        <time>2013-10-31T10:30:17Z</time>
      </trkpt>
      <trkpt lat="51.8602750" lon="7.1737510">
        <ele>50.6830000</ele>
        <time>2013-10-31T10:30:28Z</time>
      </trkpt>
      <trkpt lat="51.8603210" lon="7.1747750">
        <ele>51.1710000</ele>
        <time>2013-10-31T10:30:42Z</time>
      </trkpt>
      <trkpt lat="51.8604360" lon="7.1758840">
        <ele>51.4220000</ele>
        <time>2013-10-31T10:30:58Z</time>
      </trkpt>
      <trkpt lat="51.8605400" lon="7.1772140">
        <ele>52.1670000</ele>
        <time>2013-10-31T10:31:17Z</time>
      </trkpt>
      <trkpt lat="51.8605060" lon="7.1782420">
        <ele>51.9310000</ele>
        <time>2013-10-31T10:31:32Z</time>
      </trkpt>
      <trkpt lat="51.8604290" lon="7.1787010">
        <ele>51.8530000</ele>
        <time>2013-10-31T10:31:39Z</time>
      </trkpt>
      <trkpt lat="51.8602100" lon="7.1800030">
        <ele>52.0510000</ele>
        <time>2013-10-31T10:31:59Z</time>
      </trkpt>
      <trkpt lat="51.8600470" lon="7.1810090">
        <ele>52.5790000</ele>
        <time>2013-10-31T10:32:15Z</time>
      </trkpt>
      <trkpt lat="51.8597880" lon="7.1821670">
        <ele>52.9130000</ele>
        <time>2013-10-31T10:32:34Z</time>
      </trkpt>
      <trkpt lat="51.8593370" lon="7.1827540">
        <ele>53.1000000</ele>
        <time>2013-10-31T10:32:48Z</time>
      </trkpt>
      <trkpt lat="51.8587950" lon="7.1836570">
        <ele>53.5780000</ele>
        <time>2013-10-31T10:33:07Z</time>
      </trkpt>
      <trkpt lat="51.8584940" lon="7.1847420">
        <ele>54.2160000</ele>
        <time>2013-10-31T10:33:25Z</time>
      </trkpt>
      <trkpt lat="51.8583610" lon="7.1859060">
        <ele>54.1520000</ele>
        <time>2013-10-31T10:33:42Z</time>
      </trkpt>
      <trkpt lat="51.8582300" lon="7.1871020">
        <ele>57.1610000</ele>
        <time>2013-10-31T10:34:02Z</time>
      </trkpt>
      <trkpt lat="51.8582150" lon="7.1873660">
        <ele>57.8430000</ele>
        <time>2013-10-31T10:34:07Z</time>
      </trkpt>
      <trkpt lat="51.8582580" lon="7.1882670">
        <ele>58.8190000</ele>
        <time>2013-10-31T10:34:24Z</time>
      </trkpt>
      <trkpt lat="51.8582650" lon="7.1893340">
        <ele>59.4480000</ele>
        <time>2013-10-31T10:34:42Z</time>
      </trkpt>
      <trkpt lat="51.8582470" lon="7.1902640">
        <ele>58.4220000</ele>
        <time>2013-10-31T10:34:56Z</time>
      </trkpt>
      <trkpt lat="51.8582150" lon="7.1916940">
        <ele>58.1910000</ele>
        <time>2013-10-31T10:35:16Z</time>
      </trkpt>
      <trkpt lat="51.8580220" lon="7.1928240">
        <ele>57.0080000</ele>
        <time>2013-10-31T10:35:33Z</time>
      </trkpt>
      <trkpt lat="51.8578290" lon="7.1937480">
        <ele>56.5110000</ele>
        <time>2013-10-31T10:35:46Z</time>
      </trkpt>
      <trkpt lat="51.8577860" lon="7.1940300">
        <ele>55.4810000</ele>
        <time>2013-10-31T10:35:50Z</time>
      </trkpt>
      <trkpt lat="51.8572850" lon="7.1948400">
        <ele>54.7400000</ele>
        <time>2013-10-31T10:36:06Z</time>
      </trkpt>
      <trkpt lat="51.8571880" lon="7.1949690">
        <ele>54.7670000</ele>
        <time>2013-10-31T10:36:12Z</time>
      </trkpt>
      <trkpt lat="51.8572570" lon="7.1950790">
        <ele>55.0930000</ele>
        <time>2013-10-31T10:36:18Z</time>
      </trkpt>
      <trkpt lat="51.8579890" lon="7.1951630">
        <ele>54.7260000</ele>
        <time>2013-10-31T10:36:39Z</time>
      </trkpt>
      <trkpt lat="51.8586640" lon="7.1952660">
        <ele>54.7700000</ele>
        <time>2013-10-31T10:36:54Z</time>
      </trkpt>
      <trkpt lat="51.8596070" lon="7.1953900">
        <ele>54.1500000</ele>
        <time>2013-10-31T10:37:14Z</time>
      </trkpt>
      <trkpt lat="51.8602700" lon="7.1955580">
        <ele>54.6060000</ele>
        <time>2013-10-31T10:37:30Z</time>
      </trkpt>
      <trkpt lat="51.8609100" lon="7.1958270">
        <ele>54.6550000</ele>
        <time>2013-10-31T10:37:46Z</time>
      </trkpt>
      <trkpt lat="51.8615690" lon="7.1960640">
        <ele>54.9260000</ele>
        <time>2013-10-31T10:38:03Z</time>
      </trkpt>
      <trkpt lat="51.8624720" lon="7.1964240">
        <ele>54.8110000</ele>
        <time>2013-10-31T10:38:24Z</time>
      </trkpt>
      <trkpt lat="51.8632170" lon="7.1967460">
        <ele>55.5310000</ele>
        <time>2013-10-31T10:38:42Z</time>
      </trkpt>
      <trkpt lat="51.8632540" lon="7.1967550">
        <ele>55.9430000</ele>
        <time>2013-10-31T10:38:43Z</time>
      </trkpt>
      <trkpt lat="51.8634200" lon="7.1967550">
        <ele>55.5580000</ele>
        <time>2013-10-31T10:38:47Z</time>
      </trkpt>
      <trkpt lat="51.8640790" lon="7.1971220">
        <ele>55.8040000</ele>
        <time>2013-10-31T10:39:03Z</time>
      </trkpt>
      <trkpt lat="51.8646970" lon="7.1976800">
        <ele>55.6070000</ele>
        <time>2013-10-31T10:39:19Z</time>
      </trkpt>
      <trkpt lat="51.8647690" lon="7.1977610">
        <ele>55.4520000</ele>
        <time>2013-10-31T10:39:21Z</time>
      </trkpt>
      <trkpt lat="51.8653760" lon="7.1983540">
        <ele>55.8040000</ele>
        <time>2013-10-31T10:39:38Z</time>
      </trkpt>
      <trkpt lat="51.8658340" lon="7.1988200">
        <ele>56.2000000</ele>
        <time>2013-10-31T10:39:52Z</time>
      </trkpt>
      <trkpt lat="51.8662960" lon="7.1991510">
        <ele>56.4180000</ele>
        <time>2013-10-31T10:40:04Z</time>
      </trkpt>
      <trkpt lat="51.8667520" lon="7.1993970">
        <ele>56.4510000</ele>
        <time>2013-10-31T10:40:15Z</time>
      </trkpt>
      <trkpt lat="51.8675100" lon="7.1996720">
        <ele>57.3950000</ele>
        <time>2013-10-31T10:40:34Z</time>
      </trkpt>
      <trkpt lat="51.8686100" lon="7.2002590">
        <ele>56.6830000</ele>
        <time>2013-10-31T10:41:00Z</time>
      </trkpt>
      <trkpt lat="51.8695760" lon="7.2007780">
        <ele>57.7490000</ele>
        <time>2013-10-31T10:41:23Z</time>
      </trkpt>
      <trkpt lat="51.8707630" lon="7.2014560">
        <ele>57.7530000</ele>
        <time>2013-10-31T10:41:52Z</time>
      </trkpt>
      <trkpt lat="51.8716390" lon="7.2019860">
        <ele>58.5850000</ele>
        <time>2013-10-31T10:42:14Z</time>
      </trkpt>
      <trkpt lat="51.8718670" lon="7.2019450">
        <ele>58.6090000</ele>
        <time>2013-10-31T10:42:19Z</time>
      </trkpt>
      <trkpt lat="51.8727690" lon="7.2012760">
        <ele>57.9850000</ele>
        <time>2013-10-31T10:42:41Z</time>
      </trkpt>
      <trkpt lat="51.8731340" lon="7.2009520">
        <ele>58.0420000</ele>
        <time>2013-10-31T10:42:51Z</time>
      </trkpt>
      <trkpt lat="51.8740630" lon="7.2005890">
        <ele>57.4040000</ele>
        <time>2013-10-31T10:43:12Z</time>
      </trkpt>
      <trkpt lat="51.8747880" lon="7.2002960">
        <ele>58.2410000</ele>
        <time>2013-10-31T10:43:29Z</time>
      </trkpt>
      <trkpt lat="51.8750320" lon="7.2003590">
        <ele>57.4950000</ele>
        <time>2013-10-31T10:43:34Z</time>
      </trkpt>
      <trkpt lat="51.8757250" lon="7.2011100">
        <ele>57.9130000</ele>
        <time>2013-10-31T10:43:53Z</time>
      </trkpt>
      <trkpt lat="51.8765830" lon="7.2020310">
        <ele>60.1550000</ele>
        <time>2013-10-31T10:44:18Z</time>
      </trkpt>
      <trkpt lat="51.8769940" lon="7.2022950">
        <ele>60.5420000</ele>
        <time>2013-10-31T10:44:30Z</time>
      </trkpt>
      <trkpt lat="51.8777100" lon="7.2017640">
        <ele>60.0160000</ele>
        <time>2013-10-31T10:44:48Z</time>
      </trkpt>
      <trkpt lat="51.8785420" lon="7.2009560">
        <ele>60.2140000</ele>
        <time>2013-10-31T10:45:10Z</time>
      </trkpt>
      <trkpt lat="51.8794870" lon="7.2000400">
        <ele>60.5200000</ele>
        <time>2013-10-31T10:45:35Z</time>
      </trkpt>
      <trkpt lat="51.8796060" lon="7.1999250">
        <ele>59.6880000</ele>
        <time>2013-10-31T10:45:38Z</time>
      </trkpt>
      <trkpt lat="51.8797190" lon="7.1998150">
        <ele>59.3670000</ele>
        <time>2013-10-31T10:45:41Z</time>
      </trkpt>
      <trkpt lat="51.8799490" lon="7.1995920">
        <ele>59.5900000</ele>
        <time>2013-10-31T10:45:47Z</time>
      </trkpt>
      <trkpt lat="51.8804840" lon="7.1990730">
        <ele>60.2600000</ele>
        <time>2013-10-31T10:46:03Z</time>
      </trkpt>
      <trkpt lat="51.8810490" lon="7.1985250">
        <ele>60.2240000</ele>
        <time>2013-10-31T10:46:23Z</time>
      </trkpt>
      <trkpt lat="51.8812610" lon="7.1983210">
        <ele>60.9100000</ele>
        <time>2013-10-31T10:46:31Z</time>
      </trkpt>
      <trkpt lat="51.8812790" lon="7.1983360">
        <ele>61.5730000</ele>
        <time>2013-10-31T10:46:35Z</time>
      </trkpt>
      <trkpt lat="51.8814190" lon="7.1989210">
        <ele>61.1040000</ele>
        <time>2013-10-31T10:46:47Z</time>
      </trkpt>
      <trkpt lat="51.8816970" lon="7.1988230">
        <ele>62.5300000</ele>
        <time>2013-10-31T10:46:56Z</time>
      </trkpt>
      <trkpt lat="51.8822000" lon="7.1980570">
        <ele>62.2740000</ele>
        <time>2013-10-31T10:47:15Z</time>
      </trkpt>
      <trkpt lat="51.8826120" lon="7.1971250">
        <ele>60.8770000</ele>
        <time>2013-10-31T10:47:31Z</time>
      </trkpt>
      <trkpt lat="51.8831440" lon="7.1966550">
        <ele>61.4050000</ele>
        <time>2013-10-31T10:47:46Z</time>
      </trkpt>
      <trkpt lat="51.8834780" lon="7.1963590">
        <ele>60.4250000</ele>
        <time>2013-10-31T10:47:56Z</time>
      </trkpt>
      <trkpt lat="51.8838260" lon="7.1960510">
        <ele>60.6430000</ele>
        <time>2013-10-31T10:48:06Z</time>
      </trkpt>
      <trkpt lat="51.8841850" lon="7.1957330">
        <ele>61.9360000</ele>
        <time>2013-10-31T10:48:18Z</time>
      </trkpt>
      <trkpt lat="51.8850520" lon="7.1949660">
        <ele>62.6800000</ele>
        <time>2013-10-31T10:48:44Z</time>
      </trkpt>
      <trkpt lat="51.8856010" lon="7.1944380">
        <ele>62.5800000</ele>
        <time>2013-10-31T10:49:01Z</time>
      </trkpt>
      <trkpt lat="51.8865300" lon="7.1935250">
        <ele>62.9530000</ele>
        <time>2013-10-31T10:49:29Z</time>
      </trkpt>
      <trkpt lat="51.8872470" lon="7.1928290">
        <ele>63.0700000</ele>
        <time>2013-10-31T10:49:50Z</time>
      </trkpt>
      <trkpt lat="51.8881240" lon="7.1919780">
        <ele>63.5070000</ele>
        <time>2013-10-31T10:50:17Z</time>
      </trkpt>
      <trkpt lat="51.8888530" lon="7.1912710">
        <ele>63.8470000</ele>
        <time>2013-10-31T10:50:40Z</time>
      </trkpt>
      <trkpt lat="51.8891600" lon="7.1909730">
        <ele>64.8930000</ele>
        <time>2013-10-31T10:50:50Z</time>
      </trkpt>
      <trkpt lat="51.8892910" lon="7.1908460">
        <ele>65.0740000</ele>
        <time>2013-10-31T10:50:55Z</time>
      </trkpt>
      <trkpt lat="51.8894210" lon="7.1909990">
        <ele>64.9050000</ele>
        <time>2013-10-31T10:50:59Z</time>
      </trkpt>
      <trkpt lat="51.8896450" lon="7.1914620">
        <ele>65.6210000</ele>
        <time>2013-10-31T10:51:10Z</time>
      </trkpt>
      <trkpt lat="51.8897550" lon="7.1913560">
        <ele>65.6760000</ele>
        <time>2013-10-31T10:51:14Z</time>
      </trkpt>
      <trkpt lat="51.8903180" lon="7.1906790">
        <ele>65.4500000</ele>
        <time>2013-10-31T10:51:33Z</time>
      </trkpt>
      <trkpt lat="51.8905610" lon="7.1899080">
        <ele>64.8460000</ele>
        <time>2013-10-31T10:51:49Z</time>
      </trkpt>
      <trkpt lat="51.8910820" lon="7.1892220">
        <ele>64.6850000</ele>
        <time>2013-10-31T10:52:06Z</time>
      </trkpt>
      <trkpt lat="51.8917340" lon="7.1884210">
        <ele>65.7280000</ele>
        <time>2013-10-31T10:52:26Z</time>
      </trkpt>
      <trkpt lat="51.8922480" lon="7.1877460">
        <ele>65.0810000</ele>
        <time>2013-10-31T10:52:45Z</time>
      </trkpt>
      <trkpt lat="51.8925840" lon="7.1874030">
        <ele>65.8870000</ele>
        <time>2013-10-31T10:53:02Z</time>
      </trkpt>
      <trkpt lat="51.8926210" lon="7.1873450">
        <ele>65.0550000</ele>
        <time>2013-10-31T10:53:17Z</time>
      </trkpt>
      <trkpt lat="51.8925401" lon="7.1871483">
        <ele>73.1523438</ele>
      </trkpt>
    </trkseg>
  </trk>

</gpx>
